»·PEaware :: N805RJ KMER-KSQL

N805RJ :: KMER-KSQL

FLIGHT INFORMATION

Flight Status: Arrived
Operator: Privately registered:
United States
More flights under this callsign
Pilot: Rickie J. (22768)
Aircraft: CESSNA 172 SKYHAWK
(C172)
More flights by this aircraft type
Origin: KMER Castle
United States
Destination: KSQL San Carlos
United States
More flights between these airports :: More routes between these airports
Route: VOLTA KARNN V301 SUNOL/F030 DECOT/F020
File this flight plan on PilotEdge
Remarks: South Bay VFR Flyway
Altitude:
(Current/Filed)
6,500ft
Speed:
(Current/Filed)
120kts
Departed: 26-Apr-20 01:00 PM
Arrived: 26-Apr-20 02:00 PM
Distance/Time
Traveled:
81nm/1:00
Distance/Time
To Go:
Arrived

Flight Plot

Page will automatically refresh every two minutes.

Flight plan parsing failed; only flown route is shown


Map Options




Map Legend


Flown Route
Filed Route
Departure Airport
Arrival Airport
Navaid (VOR, NDB)
Fix

Horizontal Profiles

Position Reports

Time Latitude Longitude Heading Altitude Ground
Speed
26-Apr-20 12:26 37.369880 -120.566735 235 193ft 0kts
26-Apr-20 12:27 37.369880 -120.566735 235 193ft 0kts
26-Apr-20 12:28 37.369880 -120.566735 235 193ft 0kts
26-Apr-20 12:29 37.369880 -120.566736 235 193ft 0kts
26-Apr-20 12:30 37.369880 -120.566736 235 193ft 0kts
26-Apr-20 12:31 37.369880 -120.566736 235 193ft 0kts
26-Apr-20 12:32 37.369880 -120.566736 235 193ft 0kts
26-Apr-20 12:33 37.369880 -120.566736 235 193ft 0kts
26-Apr-20 12:34 37.369880 -120.566736 235 193ft 0kts
26-Apr-20 12:35 37.369880 -120.566736 235 193ft 0kts
26-Apr-20 12:36 37.369880 -120.566736 235 193ft 0kts
26-Apr-20 12:37 37.369880 -120.566736 235 193ft 0kts
26-Apr-20 12:38 37.369880 -120.566736 235 193ft 0kts
26-Apr-20 12:39 37.369880 -120.566736 235 193ft 0kts
26-Apr-20 12:40 37.369880 -120.566736 235 193ft 0kts
26-Apr-20 12:41 37.369880 -120.566736 235 193ft 0kts
26-Apr-20 12:42 37.369880 -120.566736 235 193ft 0kts
26-Apr-20 12:43 37.369880 -120.566736 235 193ft 0kts
26-Apr-20 12:44 37.369880 -120.566736 235 193ft 0kts
26-Apr-20 12:45 37.369880 -120.566736 235 193ft 0kts
26-Apr-20 12:46 37.369880 -120.566736 235 193ft 0kts
26-Apr-20 12:47 37.369868 -120.566709 49 193ft 0kts
26-Apr-20 12:48 37.370300 -120.566090 51 193ft 3kts
26-Apr-20 12:49 37.371117 -120.564831 51 193ft 5kts
26-Apr-20 12:50 37.372069 -120.563258 95 193ft 5kts
26-Apr-20 12:51 37.370485 -120.561551 140 193ft 8kts
26-Apr-20 12:52 37.368398 -120.559698 141 193ft 9kts
26-Apr-20 12:53 37.368007 -120.557137 50 193ft 2kts
26-Apr-20 12:54 37.368009 -120.557134 49 193ft 0kts
26-Apr-20 12:55 37.368009 -120.557134 50 193ft 0kts
26-Apr-20 12:56 37.368009 -120.557134 50 193ft 0kts
26-Apr-20 12:57 37.368312 -120.556664 47 193ft 4kts
26-Apr-20 12:58 37.370228 -120.557804 321 193ft 33kts
26-Apr-20 12:59 37.388094 -120.576301 320 678ft 91kts
26-Apr-20 13:00 37.406699 -120.596266 319 1544ft 87kts
26-Apr-20 13:01 37.427100 -120.617680 319 2269ft 99kts
26-Apr-20 13:02 37.418558 -120.645441 223 2963ft 102kts
26-Apr-20 13:03 37.397216 -120.669424 223 3672ft 101kts
26-Apr-20 13:04 37.376342 -120.692836 223 4378ft 98kts
26-Apr-20 13:05 37.356029 -120.715576 223 5084ft 95kts
26-Apr-20 13:06 37.337673 -120.740404 242 5723ft 100kts
26-Apr-20 13:07 37.326961 -120.773601 251 6334ft 102kts
26-Apr-20 13:08 37.317115 -120.810688 252 6505ft 120kts
26-Apr-20 13:09 37.306507 -120.851084 252 6504ft 121kts
26-Apr-20 13:10 37.295754 -120.891935 252 6504ft 121kts
26-Apr-20 13:11 37.284936 -120.932969 252 6504ft 121kts
26-Apr-20 13:12 37.274785 -120.970856 248 6504ft 121kts
26-Apr-20 13:13 37.259871 -121.009223 246 6522ft 120kts
26-Apr-20 13:14 37.244742 -121.046973 246 6534ft 121kts
26-Apr-20 13:15 37.229165 -121.085712 246 6506ft 123kts
26-Apr-20 13:16 37.213601 -121.124389 246 6506ft 123kts
26-Apr-20 13:17 37.198083 -121.162941 245 6514ft 122kts
26-Apr-20 13:18 37.182781 -121.200916 244 6533ft 121kts
26-Apr-20 13:19 37.167304 -121.239197 244 6505ft 122kts
26-Apr-20 13:20 37.157876 -121.278257 297 6505ft 121kts
26-Apr-20 13:21 37.180368 -121.311179 311 6506ft 124kts
26-Apr-20 13:22 37.205222 -121.341516 314 6492ft 125kts
26-Apr-20 13:23 37.230479 -121.371198 315 6479ft 121kts
26-Apr-20 13:25 37.255382 -121.400225 315 6480ft 120kts
26-Apr-20 13:26 37.279815 -121.428692 316 6527ft 120kts
26-Apr-20 13:27 37.304942 -121.457952 316 6508ft 120kts
26-Apr-20 13:28 37.329872 -121.487004 315 6505ft 120kts
26-Apr-20 13:29 37.352247 -121.513102 315 6505ft 120kts
26-Apr-20 13:30 37.376533 -121.541443 316 6506ft 120kts
26-Apr-20 13:31 37.401388 -121.570489 315 6506ft 120kts
26-Apr-20 13:32 37.426468 -121.599819 314 6449ft 122kts
26-Apr-20 13:33 37.452238 -121.630033 314 6284ft 130kts
26-Apr-20 13:34 37.476630 -121.658599 314 5900ft 126kts
26-Apr-20 13:35 37.498974 -121.684837 314 5557ft 127kts
26-Apr-20 13:36 37.520286 -121.709863 314 5228ft 128kts
26-Apr-20 13:37 37.542104 -121.735512 314 4896ft 127kts
26-Apr-20 13:38 37.564403 -121.761740 314 4555ft 127kts
26-Apr-20 13:39 37.587728 -121.789203 314 4192ft 127kts
26-Apr-20 13:40 37.604359 -121.821317 277 3832ft 126kts
26-Apr-20 13:40 37.605604 -121.850970 270 3563ft 126kts
26-Apr-20 13:42 37.605814 -121.892929 270 3187ft 126kts
26-Apr-20 13:43 37.605825 -121.927767 268 2869ft 126kts
26-Apr-20 13:43 37.605765 -121.955463 270 2614ft 126kts
26-Apr-20 13:44 37.605822 -121.990025 268 2304ft 127kts
26-Apr-20 13:46 37.605883 -122.029315 270 1947ft 123kts
26-Apr-20 13:46 37.601560 -122.056034 245 1756ft 122kts
26-Apr-20 13:47 37.578899 -122.075177 219 1515ft 124kts
26-Apr-20 13:48 37.556398 -122.099715 228 1268ft 119kts
26-Apr-20 13:50 37.537630 -122.122583 232 1093ft 72kts
26-Apr-20 13:50 37.528227 -122.134630 240 961ft 67kts
26-Apr-20 13:51 37.518813 -122.150385 242 803ft 67kts
26-Apr-20 13:52 37.508522 -122.167472 240 623ft 63kts
26-Apr-20 13:53 37.500244 -122.180974 239 638ft 66kts
26-Apr-20 13:54 37.491871 -122.194700 238 630ft 66kts
26-Apr-20 13:55 37.490375 -122.209605 285 550ft 55kts
26-Apr-20 13:56 37.492927 -122.223923 281 452ft 51kts
26-Apr-20 13:57 37.499282 -122.234921 312 349ft 48kts
26-Apr-20 13:58 37.506874 -122.243672 309 168ft 43kts
26-Apr-20 13:59 37.512470 -122.250230 321 8ft 20kts
26-Apr-20 14:00 37.514444 -122.251821 315 8ft 8kts
26-Apr-20 14:01 37.514985 -122.251508 134 8ft 3kts
26-Apr-20 14:02 37.514936 -122.251451 139 8ft 0kts
26-Apr-20 14:03 37.514936 -122.251451 139 8ft 0kts
26-Apr-20 14:04 37.514936 -122.251451 139 8ft 0kts
26-Apr-20 14:05 37.514936 -122.251451 139 8ft 0kts
26-Apr-20 14:06 37.514936 -122.251451 139 8ft 0kts
26-Apr-20 14:07 37.514936 -122.251451 139 8ft 0kts
26-Apr-20 14:08 37.514936 -122.251451 139 8ft 0kts
26-Apr-20 14:09 37.514936 -122.251451 139 8ft 0kts

Navigation Log

Ident Type
Flight plan parsing failed, navigation log unavailable